sensor_id;sensor_type;location;lat;lon;timestamp;P1;durP1;ratioP1;P2;durP2;ratioP2
40867;SDS011;26586;50.708;22.412;2022-09-20T00:00:44;4.63;;;2.80;;
40867;SDS011;26586;50.708;22.412;2022-09-20T00:03:25;4.13;;;2.30;;
40867;SDS011;26586;50.708;22.412;2022-09-20T00:05:51;5.63;;;3.15;;
40867;SDS011;26586;50.708;22.412;2022-09-20T00:08:17;5.15;;;3.40;;
40867;SDS011;26586;50.708;22.412;2022-09-20T00:10:43;6.95;;;2.90;;
40867;SDS011;26586;50.708;22.412;2022-09-20T00:13:11;4.10;;;2.97;;
40867;SDS011;26586;50.708;22.412;2022-09-20T00:15:42;5.10;;;3.15;;
40867;SDS011;26586;50.708;22.412;2022-09-20T00:18:09;4.07;;;2.45;;
40867;SDS011;26586;50.708;22.412;2022-09-20T00:20:36;3.33;;;2.40;;
40867;SDS011;26586;50.708;22.412;2022-09-20T00:23:10;5.95;;;3.08;;
40867;SDS011;26586;50.708;22.412;2022-09-20T00:25:36;4.85;;;2.83;;
40867;SDS011;26586;50.708;22.412;2022-09-20T00:28:03;5.17;;;2.77;;
40867;SDS011;26586;50.708;22.412;2022-09-20T00:30:31;3.63;;;2.35;;
40867;SDS011;26586;50.708;22.412;2022-09-20T00:32:58;6.10;;;2.70;;
40867;SDS011;26586;50.708;22.412;2022-09-20T00:35:24;3.83;;;2.20;;
40867;SDS011;26586;50.708;22.412;2022-09-20T00:37:50;3.80;;;2.58;;
40867;SDS011;26586;50.708;22.412;2022-09-20T00:40:18;4.80;;;2.67;;
40867;SDS011;26586;50.708;22.412;2022-09-20T00:42:45;3.78;;;2.35;;
40867;SDS011;26586;50.708;22.412;2022-09-20T00:50:32;5.82;;;2.97;;
40867;SDS011;26586;50.708;22.412;2022-09-20T00:55:32;4.18;;;2.70;;
40867;SDS011;26586;50.708;22.412;2022-09-20T00:58:02;6.60;;;2.90;;
40867;SDS011;26586;50.708;22.412;2022-09-20T01:00:29;5.28;;;2.70;;
40867;SDS011;26586;50.708;22.412;2022-09-20T01:02:57;4.15;;;2.58;;
40867;SDS011;26586;50.708;22.412;2022-09-20T01:05:25;5.95;;;2.50;;
40867;SDS011;26586;50.708;22.412;2022-09-20T01:07:52;4.68;;;2.70;;
40867;SDS011;26586;50.708;22.412;2022-09-20T01:10:19;5.03;;;3.03;;
40867;SDS011;26586;50.708;22.412;2022-09-20T01:12:45;6.28;;;3.33;;
40867;SDS011;26586;50.708;22.412;2022-09-20T01:15:13;3.00;;;2.20;;
40867;SDS011;26586;50.708;22.412;2022-09-20T01:17:42;3.40;;;2.28;;
40867;SDS011;26586;50.708;22.412;2022-09-20T01:28:40;3.78;;;2.38;;
40867;SDS011;26586;50.708;22.412;2022-09-20T01:31:14;5.82;;;2.53;;
40867;SDS011;26586;50.708;22.412;2022-09-20T01:36:19;4.00;;;2.50;;
40867;SDS011;26586;50.708;22.412;2022-09-20T01:39:09;3.80;;;2.13;;
40867;SDS011;26586;50.708;22.412;2022-09-20T01:41:48;3.63;;;2.10;;
40867;SDS011;26586;50.708;22.412;2022-09-20T01:47:12;3.55;;;2.50;;
40867;SDS011;26586;50.708;22.412;2022-09-20T01:50:32;3.47;;;2.22;;
40867;SDS011;26586;50.708;22.412;2022-09-20T02:04:17;5.47;;;3.00;;
40867;SDS011;26586;50.708;22.412;2022-09-20T02:06:53;4.85;;;2.90;;
40867;SDS011;26586;50.708;22.412;2022-09-20T02:09:48;5.80;;;2.95;;
40867;SDS011;26586;50.708;22.412;2022-09-20T02:12:34;4.97;;;3.15;;
40867;SDS011;26586;50.708;22.412;2022-09-20T02:37:34;5.75;;;2.47;;
40867;SDS011;26586;50.708;22.412;2022-09-20T02:48:53;3.95;;;2.22;;
40867;SDS011;26586;50.708;22.412;2022-09-20T02:51:41;3.67;;;2.50;;
40867;SDS011;26586;50.708;22.412;2022-09-20T02:54:16;3.53;;;2.30;;
40867;SDS011;26586;50.708;22.412;2022-09-20T02:57:14;4.20;;;2.17;;
40867;SDS011;26586;50.708;22.412;2022-09-20T03:02:54;2.90;;;1.75;;
40867;SDS011;26586;50.708;22.412;2022-09-20T03:33:15;3.30;;;1.73;;
40867;SDS011;26586;50.708;22.412;2022-09-20T03:46:43;2.60;;;1.50;;
40867;SDS011;26586;50.708;22.412;2022-09-20T03:57:55;1.88;;;1.20;;
40867;SDS011;26586;50.708;22.412;2022-09-20T04:00:57;2.28;;;1.50;;
40867;SDS011;26586;50.708;22.412;2022-09-20T04:03:37;2.40;;;1.65;;
40867;SDS011;26586;50.708;22.412;2022-09-20T04:20:37;2.58;;;1.88;;
40867;SDS011;26586;50.708;22.412;2022-09-20T04:23:16;2.60;;;1.60;;
40867;SDS011;26586;50.708;22.412;2022-09-20T04:25:55;2.53;;;2.13;;
40867;SDS011;26586;50.708;22.412;2022-09-20T04:28:30;3.30;;;1.80;;
40867;SDS011;26586;50.708;22.412;2022-09-20T04:33:53;3.67;;;2.22;;
40867;SDS011;26586;50.708;22.412;2022-09-20T04:52:35;3.35;;;2.40;;
40867;SDS011;26586;50.708;22.412;2022-09-20T04:55:23;3.65;;;2.00;;
40867;SDS011;26586;50.708;22.412;2022-09-20T05:06:40;3.22;;;2.13;;
40867;SDS011;26586;50.708;22.412;2022-09-20T05:11:54;4.25;;;2.65;;
40867;SDS011;26586;50.708;22.412;2022-09-20T05:14:36;6.85;;;3.00;;
40867;SDS011;26586;50.708;22.412;2022-09-20T05:36:10;7.63;;;3.88;;
40867;SDS011;26586;50.708;22.412;2022-09-20T06:00:22;4.95;;;3.53;;
40867;SDS011;26586;50.708;22.412;2022-09-20T06:16:39;6.00;;;3.85;;
40867;SDS011;26586;50.708;22.412;2022-09-20T06:22:15;5.97;;;4.28;;
40867;SDS011;26586;50.708;22.412;2022-09-20T06:24:55;7.60;;;4.72;;
40867;SDS011;26586;50.708;22.412;2022-09-20T06:27:40;6.95;;;5.22;;
40867;SDS011;26586;50.708;22.412;2022-09-20T06:30:18;7.55;;;5.05;;
40867;SDS011;26586;50.708;22.412;2022-09-20T06:33:20;5.97;;;3.88;;
40867;SDS011;26586;50.708;22.412;2022-09-20T06:38:56;6.55;;;4.00;;
40867;SDS011;26586;50.708;22.412;2022-09-20T06:42:02;6.35;;;4.38;;
40867;SDS011;26586;50.708;22.412;2022-09-20T06:44:28;5.93;;;3.83;;
40867;SDS011;26586;50.708;22.412;2022-09-20T06:46:55;5.75;;;4.00;;
40867;SDS011;26586;50.708;22.412;2022-09-20T06:49:21;5.70;;;4.60;;
40867;SDS011;26586;50.708;22.412;2022-09-20T06:51:52;6.07;;;4.57;;
40867;SDS011;26586;50.708;22.412;2022-09-20T06:54:20;8.13;;;6.68;;
40867;SDS011;26586;50.708;22.412;2022-09-20T06:56:48;6.78;;;4.43;;
40867;SDS011;26586;50.708;22.412;2022-09-20T06:59:15;9.73;;;6.10;;
40867;SDS011;26586;50.708;22.412;2022-09-20T07:01:41;6.05;;;4.40;;
40867;SDS011;26586;50.708;22.412;2022-09-20T07:04:08;7.15;;;5.50;;
40867;SDS011;26586;50.708;22.412;2022-09-20T07:06:34;7.03;;;4.78;;
40867;SDS011;26586;50.708;22.412;2022-09-20T07:09:01;7.38;;;4.40;;
40867;SDS011;26586;50.708;22.412;2022-09-20T07:11:27;5.90;;;4.28;;
40867;SDS011;26586;50.708;22.412;2022-09-20T07:13:54;8.82;;;5.82;;
40867;SDS011;26586;50.708;22.412;2022-09-20T07:16:22;6.75;;;4.60;;
40867;SDS011;26586;50.708;22.412;2022-09-20T07:18:49;5.82;;;4.47;;
40867;SDS011;26586;50.708;22.412;2022-09-20T07:21:17;5.43;;;4.22;;
40867;SDS011;26586;50.708;22.412;2022-09-20T07:23:44;5.60;;;4.47;;
40867;SDS011;26586;50.708;22.412;2022-09-20T07:28:45;5.90;;;4.28;;
40867;SDS011;26586;50.708;22.412;2022-09-20T07:31:11;6.03;;;4.30;;
40867;SDS011;26586;50.708;22.412;2022-09-20T07:33:38;12.23;;;5.88;;
40867;SDS011;26586;50.708;22.412;2022-09-20T07:36:04;7.10;;;5.07;;
40867;SDS011;26586;50.708;22.412;2022-09-20T07:38:30;12.80;;;5.47;;
40867;SDS011;26586;50.708;22.412;2022-09-20T07:40:57;14.53;;;5.33;;
40867;SDS011;26586;50.708;22.412;2022-09-20T07:43:35;9.65;;;4.97;;
40867;SDS011;26586;50.708;22.412;2022-09-20T07:46:01;9.73;;;5.80;;
40867;SDS011;26586;50.708;22.412;2022-09-20T07:48:29;8.15;;;4.78;;
40867;SDS011;26586;50.708;22.412;2022-09-20T07:50:58;8.07;;;4.78;;
40867;SDS011;26586;50.708;22.412;2022-09-20T07:53:31;13.82;;;7.70;;
40867;SDS011;26586;50.708;22.412;2022-09-20T07:55:58;6.05;;;4.47;;
40867;SDS011;26586;50.708;22.412;2022-09-20T07:58:28;9.70;;;4.25;;
40867;SDS011;26586;50.708;22.412;2022-09-20T08:01:08;6.60;;;4.40;;
40867;SDS011;26586;50.708;22.412;2022-09-20T08:03:39;6.63;;;5.10;;
40867;SDS011;26586;50.708;22.412;2022-09-20T08:06:08;9.32;;;6.63;;
40867;SDS011;26586;50.708;22.412;2022-09-20T08:08:36;8.48;;;5.43;;
40867;SDS011;26586;50.708;22.412;2022-09-20T08:11:08;14.68;;;6.13;;
40867;SDS011;26586;50.708;22.412;2022-09-20T08:13:40;20.92;;;6.20;;
40867;SDS011;26586;50.708;22.412;2022-09-20T08:16:15;12.77;;;5.47;;
40867;SDS011;26586;50.708;22.412;2022-09-20T08:18:48;10.70;;;4.80;;
40867;SDS011;26586;50.708;22.412;2022-09-20T08:21:16;9.32;;;4.75;;
40867;SDS011;26586;50.708;22.412;2022-09-20T08:23:44;11.95;;;4.63;;
40867;SDS011;26586;50.708;22.412;2022-09-20T08:26:21;14.95;;;5.95;;
40867;SDS011;26586;50.708;22.412;2022-09-20T08:28:54;7.97;;;3.72;;
40867;SDS011;26586;50.708;22.412;2022-09-20T08:31:25;10.07;;;4.57;;
40867;SDS011;26586;50.708;22.412;2022-09-20T08:33:58;6.05;;;4.28;;
40867;SDS011;26586;50.708;22.412;2022-09-20T08:36:31;9.60;;;3.88;;
40867;SDS011;26586;50.708;22.412;2022-09-20T08:39:03;11.77;;;4.32;;
40867;SDS011;26586;50.708;22.412;2022-09-20T08:41:51;7.07;;;2.92;;
40867;SDS011;26586;50.708;22.412;2022-09-20T08:44:30;14.93;;;5.18;;
40867;SDS011;26586;50.708;22.412;2022-09-20T08:50:02;7.05;;;3.38;;
40867;SDS011;26586;50.708;22.412;2022-09-20T08:52:33;8.27;;;3.55;;
40867;SDS011;26586;50.708;22.412;2022-09-20T08:57:44;7.80;;;2.92;;
40867;SDS011;26586;50.708;22.412;2022-09-20T09:00:22;5.03;;;3.03;;
40867;SDS011;26586;50.708;22.412;2022-09-20T09:03:00;6.05;;;3.45;;
40867;SDS011;26586;50.708;22.412;2022-09-20T09:05:51;5.40;;;2.35;;
40867;SDS011;26586;50.708;22.412;2022-09-20T09:08:26;5.43;;;2.40;;
40867;SDS011;26586;50.708;22.412;2022-09-20T09:11:15;4.82;;;2.60;;
40867;SDS011;26586;50.708;22.412;2022-09-20T09:14:04;7.82;;;3.00;;
40867;SDS011;26586;50.708;22.412;2022-09-20T09:17:06;20.92;;;5.68;;
40867;SDS011;26586;50.708;22.412;2022-09-20T09:19:59;9.35;;;3.28;;
40867;SDS011;26586;50.708;22.412;2022-09-20T09:22:41;9.55;;;2.60;;
40867;SDS011;26586;50.708;22.412;2022-09-20T09:30:27;23.52;;;4.43;;
40867;SDS011;26586;50.708;22.412;2022-09-20T09:33:13;2.65;;;1.65;;
40867;SDS011;26586;50.708;22.412;2022-09-20T09:38:40;25.17;;;4.90;;
40867;SDS011;26586;50.708;22.412;2022-09-20T09:43:45;3.20;;;1.80;;
40867;SDS011;26586;50.708;22.412;2022-09-20T09:46:29;2.50;;;1.60;;
40867;SDS011;26586;50.708;22.412;2022-09-20T09:54:57;17.92;;;4.60;;
40867;SDS011;26586;50.708;22.412;2022-09-20T09:57:42;10.25;;;4.57;;
40867;SDS011;26586;50.708;22.412;2022-09-20T10:00:23;7.40;;;2.08;;
40867;SDS011;26586;50.708;22.412;2022-09-20T10:08:43;11.18;;;4.57;;
40867;SDS011;26586;50.708;22.412;2022-09-20T10:31:40;4.40;;;2.10;;
40867;SDS011;26586;50.708;22.412;2022-09-20T10:43:17;1.95;;;1.30;;
40867;SDS011;26586;50.708;22.412;2022-09-20T10:54:38;5.68;;;1.60;;
40867;SDS011;26586;50.708;22.412;2022-09-20T10:57:16;5.38;;;1.67;;
40867;SDS011;26586;50.708;22.412;2022-09-20T11:03:17;1.52;;;0.70;;
40867;SDS011;26586;50.708;22.412;2022-09-20T11:08:45;1.88;;;1.15;;
40867;SDS011;26586;50.708;22.412;2022-09-20T11:11:37;3.30;;;1.00;;
40867;SDS011;26586;50.708;22.412;2022-09-20T11:22:26;3.67;;;1.13;;
40867;SDS011;26586;50.708;22.412;2022-09-20T11:27:47;1.63;;;1.02;;
40867;SDS011;26586;50.708;22.412;2022-09-20T11:30:23;1.52;;;0.90;;
40867;SDS011;26586;50.708;22.412;2022-09-20T11:32:52;1.75;;;1.00;;
40867;SDS011;26586;50.708;22.412;2022-09-20T11:35:38;3.03;;;1.08;;
40867;SDS011;26586;50.708;22.412;2022-09-20T11:38:20;4.13;;;1.13;;
40867;SDS011;26586;50.708;22.412;2022-09-20T11:41:00;1.25;;;0.80;;
40867;SDS011;26586;50.708;22.412;2022-09-20T11:43:27;1.92;;;0.70;;
40867;SDS011;26586;50.708;22.412;2022-09-20T11:46:02;1.45;;;0.70;;
40867;SDS011;26586;50.708;22.412;2022-09-20T11:48:42;1.08;;;0.77;;
40867;SDS011;26586;50.708;22.412;2022-09-20T11:56:35;1.50;;;1.00;;
40867;SDS011;26586;50.708;22.412;2022-09-20T11:59:06;1.77;;;0.90;;
40867;SDS011;26586;50.708;22.412;2022-09-20T12:02:34;1.55;;;0.77;;
40867;SDS011;26586;50.708;22.412;2022-09-20T12:05:28;1.58;;;0.98;;
40867;SDS011;26586;50.708;22.412;2022-09-20T12:08:06;1.40;;;1.00;;
40867;SDS011;26586;50.708;22.412;2022-09-20T12:10:59;2.17;;;1.10;;
40867;SDS011;26586;50.708;22.412;2022-09-20T12:13:35;2.35;;;1.08;;
40867;SDS011;26586;50.708;22.412;2022-09-20T12:16:15;1.23;;;0.95;;
40867;SDS011;26586;50.708;22.412;2022-09-20T12:19:03;1.60;;;1.02;;
40867;SDS011;26586;50.708;22.412;2022-09-20T12:24:29;2.22;;;1.20;;
40867;SDS011;26586;50.708;22.412;2022-09-20T12:30:14;5.38;;;2.45;;
40867;SDS011;26586;50.708;22.412;2022-09-20T12:32:53;5.55;;;2.40;;
40867;SDS011;26586;50.708;22.412;2022-09-20T12:38:44;3.15;;;1.38;;
40867;SDS011;26586;50.708;22.412;2022-09-20T12:41:16;11.15;;;1.88;;
40867;SDS011;26586;50.708;22.412;2022-09-20T12:43:47;4.85;;;1.05;;
40867;SDS011;26586;50.708;22.412;2022-09-20T12:52:32;2.88;;;1.40;;
40867;SDS011;26586;50.708;22.412;2022-09-20T12:55:27;3.60;;;1.95;;
40867;SDS011;26586;50.708;22.412;2022-09-20T13:00:39;4.57;;;2.20;;
40867;SDS011;26586;50.708;22.412;2022-09-20T13:08:50;2.63;;;1.50;;
40867;SDS011;26586;50.708;22.412;2022-09-20T13:14:21;4.28;;;1.67;;
40867;SDS011;26586;50.708;22.412;2022-09-20T13:19:56;4.28;;;1.65;;
40867;SDS011;26586;50.708;22.412;2022-09-20T13:22:29;2.75;;;1.10;;
40867;SDS011;26586;50.708;22.412;2022-09-20T13:25:17;3.17;;;1.50;;
40867;SDS011;26586;50.708;22.412;2022-09-20T13:28:04;1.65;;;1.20;;
40867;SDS011;26586;50.708;22.412;2022-09-20T13:31:19;10.52;;;1.92;;
40867;SDS011;26586;50.708;22.412;2022-09-20T13:34:11;3.47;;;1.40;;
40867;SDS011;26586;50.708;22.412;2022-09-20T13:36:53;6.22;;;1.50;;
40867;SDS011;26586;50.708;22.412;2022-09-20T13:39:26;4.35;;;1.30;;
40867;SDS011;26586;50.708;22.412;2022-09-20T13:41:58;2.55;;;1.23;;
40867;SDS011;26586;50.708;22.412;2022-09-20T13:44:31;2.88;;;1.25;;
40867;SDS011;26586;50.708;22.412;2022-09-20T13:47:04;2.95;;;1.08;;
40867;SDS011;26586;50.708;22.412;2022-09-20T13:52:46;2.13;;;1.00;;
40867;SDS011;26586;50.708;22.412;2022-09-20T13:55:20;3.95;;;1.25;;
40867;SDS011;26586;50.708;22.412;2022-09-20T13:57:53;1.35;;;0.80;;
40867;SDS011;26586;50.708;22.412;2022-09-20T14:00:25;1.95;;;0.85;;
40867;SDS011;26586;50.708;22.412;2022-09-20T14:02:55;2.38;;;0.85;;
40867;SDS011;26586;50.708;22.412;2022-09-20T14:05:24;4.57;;;1.60;;
40867;SDS011;26586;50.708;22.412;2022-09-20T14:07:53;1.23;;;0.50;;
40867;SDS011;26586;50.708;22.412;2022-09-20T14:10:32;3.72;;;0.60;;
40867;SDS011;26586;50.708;22.412;2022-09-20T14:13:05;1.08;;;0.32;;
40867;SDS011;26586;50.708;22.412;2022-09-20T14:15:34;3.10;;;0.38;;
40867;SDS011;26586;50.708;22.412;2022-09-20T14:18:03;1.08;;;0.50;;
40867;SDS011;26586;50.708;22.412;2022-09-20T14:20:31;12.43;;;5.72;;
40867;SDS011;26586;50.708;22.412;2022-09-20T14:23:03;5.35;;;1.35;;
40867;SDS011;26586;50.708;22.412;2022-09-20T14:25:29;27.58;;;3.08;;
40867;SDS011;26586;50.708;22.412;2022-09-20T14:28:17;2.95;;;0.95;;
40867;SDS011;26586;50.708;22.412;2022-09-20T14:33:14;1.70;;;0.85;;
40867;SDS011;26586;50.708;22.412;2022-09-20T14:35:49;3.35;;;1.20;;
40867;SDS011;26586;50.708;22.412;2022-09-20T14:38:28;1.55;;;0.40;;
40867;SDS011;26586;50.708;22.412;2022-09-20T14:40:57;0.93;;;0.90;;
40867;SDS011;26586;50.708;22.412;2022-09-20T14:43:27;3.80;;;0.77;;
40867;SDS011;26586;50.708;22.412;2022-09-20T14:46:00;1.90;;;0.95;;
40867;SDS011;26586;50.708;22.412;2022-09-20T14:48:37;1.75;;;0.75;;
40867;SDS011;26586;50.708;22.412;2022-09-20T14:53:49;2.45;;;0.80;;
40867;SDS011;26586;50.708;22.412;2022-09-20T14:56:34;1.42;;;0.93;;
40867;SDS011;26586;50.708;22.412;2022-09-20T15:04:56;1.15;;;0.68;;
40867;SDS011;26586;50.708;22.412;2022-09-20T15:07:25;0.88;;;0.40;;
40867;SDS011;26586;50.708;22.412;2022-09-20T15:09:51;1.23;;;0.40;;
40867;SDS011;26586;50.708;22.412;2022-09-20T15:12:18;4.27;;;2.60;;
40867;SDS011;26586;50.708;22.412;2022-09-20T15:14:46;7.28;;;4.68;;
40867;SDS011;26586;50.708;22.412;2022-09-20T15:17:16;4.57;;;3.08;;
40867;SDS011;26586;50.708;22.412;2022-09-20T15:19:44;6.38;;;1.98;;
40867;SDS011;26586;50.708;22.412;2022-09-20T15:22:12;5.82;;;2.10;;
40867;SDS011;26586;50.708;22.412;2022-09-20T15:24:39;4.63;;;2.40;;
40867;SDS011;26586;50.708;22.412;2022-09-20T15:27:05;3.47;;;1.70;;
40867;SDS011;26586;50.708;22.412;2022-09-20T15:29:32;2.10;;;1.40;;
40867;SDS011;26586;50.708;22.412;2022-09-20T15:31:58;6.97;;;2.85;;
40867;SDS011;26586;50.708;22.412;2022-09-20T15:34:24;21.10;;;7.75;;
40867;SDS011;26586;50.708;22.412;2022-09-20T15:36:50;4.30;;;1.98;;
40867;SDS011;26586;50.708;22.412;2022-09-20T15:39:18;5.63;;;2.17;;
40867;SDS011;26586;50.708;22.412;2022-09-20T15:41:46;5.53;;;2.13;;
40867;SDS011;26586;50.708;22.412;2022-09-20T15:44:13;12.53;;;3.60;;
40867;SDS011;26586;50.708;22.412;2022-09-20T15:46:43;28.27;;;10.00;;
40867;SDS011;26586;50.708;22.412;2022-09-20T15:49:10;19.60;;;6.70;;
40867;SDS011;26586;50.708;22.412;2022-09-20T15:51:37;6.35;;;4.15;;
40867;SDS011;26586;50.708;22.412;2022-09-20T15:54:04;2.72;;;1.70;;
40867;SDS011;26586;50.708;22.412;2022-09-20T15:56:33;4.80;;;1.33;;
40867;SDS011;26586;50.708;22.412;2022-09-20T15:59:04;5.28;;;1.80;;
40867;SDS011;26586;50.708;22.412;2022-09-20T16:01:36;3.63;;;2.45;;
40867;SDS011;26586;50.708;22.412;2022-09-20T16:04:05;3.80;;;2.13;;
40867;SDS011;26586;50.708;22.412;2022-09-20T16:06:32;5.78;;;3.10;;
40867;SDS011;26586;50.708;22.412;2022-09-20T16:08:59;9.27;;;3.38;;
40867;SDS011;26586;50.708;22.412;2022-09-20T16:11:25;4.97;;;2.03;;
40867;SDS011;26586;50.708;22.412;2022-09-20T16:13:52;4.35;;;2.40;;
40867;SDS011;26586;50.708;22.412;2022-09-20T16:16:20;6.45;;;3.88;;
40867;SDS011;26586;50.708;22.412;2022-09-20T16:18:46;8.13;;;6.13;;
40867;SDS011;26586;50.708;22.412;2022-09-20T16:21:31;6.47;;;3.90;;
40867;SDS011;26586;50.708;22.412;2022-09-20T16:23:58;6.00;;;3.43;;
40867;SDS011;26586;50.708;22.412;2022-09-20T16:28:52;5.63;;;3.22;;
40867;SDS011;26586;50.708;22.412;2022-09-20T16:34:09;5.90;;;2.85;;
40867;SDS011;26586;50.708;22.412;2022-09-20T16:36:37;3.38;;;1.40;;
40867;SDS011;26586;50.708;22.412;2022-09-20T16:39:05;3.30;;;1.70;;
40867;SDS011;26586;50.708;22.412;2022-09-20T16:41:32;5.35;;;2.38;;
40867;SDS011;26586;50.708;22.412;2022-09-20T16:43:58;5.68;;;3.63;;
40867;SDS011;26586;50.708;22.412;2022-09-20T16:46:24;5.13;;;1.83;;
40867;SDS011;26586;50.708;22.412;2022-09-20T16:48:54;4.40;;;2.22;;
40867;SDS011;26586;50.708;22.412;2022-09-20T16:53:52;2.97;;;2.22;;
40867;SDS011;26586;50.708;22.412;2022-09-20T16:56:24;3.97;;;2.47;;
40867;SDS011;26586;50.708;22.412;2022-09-20T16:58:51;4.07;;;2.65;;
40867;SDS011;26586;50.708;22.412;2022-09-20T17:01:18;5.63;;;2.85;;
40867;SDS011;26586;50.708;22.412;2022-09-20T17:03:45;6.18;;;2.92;;
40867;SDS011;26586;50.708;22.412;2022-09-20T17:06:12;5.22;;;2.53;;
40867;SDS011;26586;50.708;22.412;2022-09-20T17:08:40;4.78;;;2.63;;
40867;SDS011;26586;50.708;22.412;2022-09-20T17:11:09;3.00;;;2.05;;
40867;SDS011;26586;50.708;22.412;2022-09-20T17:13:40;6.47;;;2.92;;
40867;SDS011;26586;50.708;22.412;2022-09-20T17:16:30;6.82;;;3.00;;
40867;SDS011;26586;50.708;22.412;2022-09-20T17:18:59;8.13;;;5.20;;
40867;SDS011;26586;50.708;22.412;2022-09-20T17:21:28;11.07;;;6.43;;
40867;SDS011;26586;50.708;22.412;2022-09-20T17:28:53;7.25;;;4.50;;
40867;SDS011;26586;50.708;22.412;2022-09-20T17:31:25;7.18;;;3.20;;
40867;SDS011;26586;50.708;22.412;2022-09-20T17:33:56;5.22;;;2.50;;
40867;SDS011;26586;50.708;22.412;2022-09-20T17:36:27;5.63;;;3.03;;
40867;SDS011;26586;50.708;22.412;2022-09-20T17:38:56;5.28;;;3.17;;
40867;SDS011;26586;50.708;22.412;2022-09-20T17:41:24;16.17;;;9.98;;
40867;SDS011;26586;50.708;22.412;2022-09-20T17:46:22;8.15;;;4.82;;
40867;SDS011;26586;50.708;22.412;2022-09-20T17:48:52;5.50;;;3.08;;
40867;SDS011;26586;50.708;22.412;2022-09-20T17:51:21;5.22;;;3.53;;
40867;SDS011;26586;50.708;22.412;2022-09-20T17:53:52;7.18;;;4.82;;
40867;SDS011;26586;50.708;22.412;2022-09-20T17:56:20;11.50;;;7.53;;
40867;SDS011;26586;50.708;22.412;2022-09-20T17:58:49;8.88;;;6.40;;
40867;SDS011;26586;50.708;22.412;2022-09-20T18:01:16;9.50;;;5.82;;
40867;SDS011;26586;50.708;22.412;2022-09-20T18:03:45;14.95;;;7.25;;
40867;SDS011;26586;50.708;22.412;2022-09-20T18:09:04;17.05;;;9.18;;
40867;SDS011;26586;50.708;22.412;2022-09-20T18:11:34;13.07;;;7.30;;
40867;SDS011;26586;50.708;22.412;2022-09-20T18:14:03;13.18;;;6.78;;
40867;SDS011;26586;50.708;22.412;2022-09-20T18:16:30;13.88;;;7.32;;
40867;SDS011;26586;50.708;22.412;2022-09-20T18:18:58;19.33;;;11.45;;
40867;SDS011;26586;50.708;22.412;2022-09-20T18:21:24;16.80;;;11.68;;
40867;SDS011;26586;50.708;22.412;2022-09-20T18:23:52;15.18;;;10.77;;
40867;SDS011;26586;50.708;22.412;2022-09-20T18:26:21;12.43;;;8.63;;
40867;SDS011;26586;50.708;22.412;2022-09-20T18:28:49;11.98;;;8.23;;
40867;SDS011;26586;50.708;22.412;2022-09-20T18:31:23;14.02;;;7.07;;
40867;SDS011;26586;50.708;22.412;2022-09-20T18:33:52;8.13;;;5.40;;
40867;SDS011;26586;50.708;22.412;2022-09-20T18:36:21;9.45;;;5.10;;
40867;SDS011;26586;50.708;22.412;2022-09-20T18:38:50;5.65;;;3.35;;
40867;SDS011;26586;50.708;22.412;2022-09-20T18:41:23;5.85;;;3.20;;
40867;SDS011;26586;50.708;22.412;2022-09-20T18:43:52;4.70;;;3.40;;
40867;SDS011;26586;50.708;22.412;2022-09-20T18:46:20;5.20;;;3.25;;
40867;SDS011;26586;50.708;22.412;2022-09-20T18:48:51;6.45;;;2.97;;
40867;SDS011;26586;50.708;22.412;2022-09-20T18:51:19;5.68;;;2.80;;
40867;SDS011;26586;50.708;22.412;2022-09-20T18:53:46;6.30;;;2.78;;
40867;SDS011;26586;50.708;22.412;2022-09-20T18:58:50;7.65;;;3.63;;
40867;SDS011;26586;50.708;22.412;2022-09-20T19:09:41;8.43;;;4.35;;
40867;SDS011;26586;50.708;22.412;2022-09-20T19:18:17;7.28;;;4.95;;
40867;SDS011;26586;50.708;22.412;2022-09-20T19:21:00;7.90;;;4.90;;
40867;SDS011;26586;50.708;22.412;2022-09-20T19:23:44;8.07;;;4.50;;
40867;SDS011;26586;50.708;22.412;2022-09-20T19:29:17;6.82;;;3.63;;
40867;SDS011;26586;50.708;22.412;2022-09-20T19:31:49;8.50;;;3.60;;
40867;SDS011;26586;50.708;22.412;2022-09-20T19:34:23;5.95;;;3.35;;
40867;SDS011;26586;50.708;22.412;2022-09-20T19:39:42;4.43;;;2.70;;
40867;SDS011;26586;50.708;22.412;2022-09-20T19:48:05;4.18;;;2.45;;
40867;SDS011;26586;50.708;22.412;2022-09-20T19:50:48;4.50;;;2.70;;
40867;SDS011;26586;50.708;22.412;2022-09-20T19:53:17;9.25;;;4.80;;
40867;SDS011;26586;50.708;22.412;2022-09-20T19:55:52;6.47;;;3.63;;
40867;SDS011;26586;50.708;22.412;2022-09-20T19:58:23;5.78;;;3.10;;
40867;SDS011;26586;50.708;22.412;2022-09-20T20:00:50;9.27;;;3.92;;
40867;SDS011;26586;50.708;22.412;2022-09-20T20:03:18;5.40;;;3.03;;
40867;SDS011;26586;50.708;22.412;2022-09-20T20:05:51;5.32;;;3.10;;
40867;SDS011;26586;50.708;22.412;2022-09-20T20:08:34;7.60;;;4.10;;
40867;SDS011;26586;50.708;22.412;2022-09-20T20:22:04;5.60;;;2.70;;
40867;SDS011;26586;50.708;22.412;2022-09-20T20:24:49;8.55;;;4.57;;
40867;SDS011;26586;50.708;22.412;2022-09-20T20:27:16;5.95;;;3.72;;
40867;SDS011;26586;50.708;22.412;2022-09-20T20:29:43;7.22;;;3.38;;
40867;SDS011;26586;50.708;22.412;2022-09-20T20:32:10;4.32;;;2.72;;
40867;SDS011;26586;50.708;22.412;2022-09-20T20:34:37;7.75;;;3.20;;
40867;SDS011;26586;50.708;22.412;2022-09-20T20:37:03;5.20;;;1.97;;
40867;SDS011;26586;50.708;22.412;2022-09-20T20:39:34;4.18;;;2.38;;
40867;SDS011;26586;50.708;22.412;2022-09-20T20:42:00;3.97;;;2.40;;
40867;SDS011;26586;50.708;22.412;2022-09-20T20:44:27;5.97;;;2.90;;
40867;SDS011;26586;50.708;22.412;2022-09-20T20:46:58;4.45;;;2.88;;
40867;SDS011;26586;50.708;22.412;2022-09-20T20:49:24;4.90;;;2.65;;
40867;SDS011;26586;50.708;22.412;2022-09-20T20:51:50;5.85;;;2.30;;
40867;SDS011;26586;50.708;22.412;2022-09-20T20:54:17;6.30;;;3.30;;
40867;SDS011;26586;50.708;22.412;2022-09-20T20:56:46;5.25;;;2.85;;
40867;SDS011;26586;50.708;22.412;2022-09-20T20:59:13;6.30;;;2.70;;
40867;SDS011;26586;50.708;22.412;2022-09-20T21:01:41;8.48;;;3.38;;
40867;SDS011;26586;50.708;22.412;2022-09-20T21:04:10;4.72;;;2.88;;
40867;SDS011;26586;50.708;22.412;2022-09-20T21:06:39;7.97;;;3.53;;
40867;SDS011;26586;50.708;22.412;2022-09-20T21:09:11;5.13;;;3.35;;
40867;SDS011;26586;50.708;22.412;2022-09-20T21:11:39;3.78;;;2.10;;
40867;SDS011;26586;50.708;22.412;2022-09-20T21:14:09;5.55;;;4.55;;
40867;SDS011;26586;50.708;22.412;2022-09-20T21:16:38;7.82;;;4.80;;
40867;SDS011;26586;50.708;22.412;2022-09-20T21:19:15;5.05;;;3.63;;
40867;SDS011;26586;50.708;22.412;2022-09-20T21:21:43;4.93;;;3.13;;
40867;SDS011;26586;50.708;22.412;2022-09-20T21:24:12;4.95;;;3.20;;
40867;SDS011;26586;50.708;22.412;2022-09-20T21:26:42;5.63;;;3.00;;
40867;SDS011;26586;50.708;22.412;2022-09-20T21:29:13;4.07;;;2.35;;
40867;SDS011;26586;50.708;22.412;2022-09-20T21:31:42;5.28;;;2.33;;
40867;SDS011;26586;50.708;22.412;2022-09-20T21:34:16;4.78;;;2.85;;
40867;SDS011;26586;50.708;22.412;2022-09-20T21:36:46;5.18;;;2.60;;
40867;SDS011;26586;50.708;22.412;2022-09-20T21:39:13;4.75;;;2.08;;
40867;SDS011;26586;50.708;22.412;2022-09-20T21:41:39;3.97;;;2.20;;
40867;SDS011;26586;50.708;22.412;2022-09-20T21:44:12;4.90;;;2.50;;
40867;SDS011;26586;50.708;22.412;2022-09-20T21:46:40;6.10;;;2.85;;
40867;SDS011;26586;50.708;22.412;2022-09-20T21:49:07;6.18;;;2.95;;
40867;SDS011;26586;50.708;22.412;2022-09-20T21:51:37;3.95;;;2.65;;
40867;SDS011;26586;50.708;22.412;2022-09-20T21:54:05;3.08;;;2.50;;
40867;SDS011;26586;50.708;22.412;2022-09-20T21:56:33;3.50;;;2.25;;
40867;SDS011;26586;50.708;22.412;2022-09-20T21:59:00;2.70;;;1.73;;